sensor_id;sensor_type;location;lat;lon;timestamp;P1;durP1;ratioP1;P2;durP2;ratioP2
68126;SDS011;54931;52.098;21.006;2023-06-22T00:00:27;46.90;;;33.10;;
68126;SDS011;54931;52.098;21.006;2023-06-22T00:03:21;48.20;;;34.20;;
68126;SDS011;54931;52.098;21.006;2023-06-22T00:05:51;48.60;;;33.70;;
68126;SDS011;54931;52.098;21.006;2023-06-22T00:08:19;54.20;;;35.50;;
68126;SDS011;54931;52.098;21.006;2023-06-22T00:10:47;52.30;;;35.50;;
68126;SDS011;54931;52.098;21.006;2023-06-22T00:13:15;50.80;;;35.20;;
68126;SDS011;54931;52.098;21.006;2023-06-22T00:15:45;48.90;;;33.40;;
68126;SDS011;54931;52.098;21.006;2023-06-22T00:18:13;49.00;;;34.00;;
68126;SDS011;54931;52.098;21.006;2023-06-22T00:20:42;49.30;;;34.90;;
68126;SDS011;54931;52.098;21.006;2023-06-22T00:23:09;50.30;;;35.00;;
68126;SDS011;54931;52.098;21.006;2023-06-22T00:25:38;50.30;;;34.90;;
68126;SDS011;54931;52.098;21.006;2023-06-22T00:28:09;48.80;;;34.40;;
68126;SDS011;54931;52.098;21.006;2023-06-22T00:30:37;51.90;;;35.40;;
68126;SDS011;54931;52.098;21.006;2023-06-22T00:33:05;52.40;;;34.50;;
68126;SDS011;54931;52.098;21.006;2023-06-22T00:35:35;51.60;;;34.50;;
68126;SDS011;54931;52.098;21.006;2023-06-22T00:38:02;51.10;;;34.80;;
68126;SDS011;54931;52.098;21.006;2023-06-22T00:40:32;50.90;;;35.40;;
68126;SDS011;54931;52.098;21.006;2023-06-22T00:43:01;51.10;;;33.90;;
68126;SDS011;54931;52.098;21.006;2023-06-22T00:45:29;55.00;;;33.50;;
68126;SDS011;54931;52.098;21.006;2023-06-22T00:47:58;49.20;;;34.30;;
68126;SDS011;54931;52.098;21.006;2023-06-22T00:50:28;48.40;;;33.10;;
68126;SDS011;54931;52.098;21.006;2023-06-22T00:53:05;49.80;;;33.10;;
68126;SDS011;54931;52.098;21.006;2023-06-22T00:55:41;48.20;;;33.70;;
68126;SDS011;54931;52.098;21.006;2023-06-22T00:58:20;50.60;;;33.80;;
68126;SDS011;54931;52.098;21.006;2023-06-22T01:00:52;48.70;;;33.70;;
68126;SDS011;54931;52.098;21.006;2023-06-22T01:03:20;53.60;;;35.20;;
68126;SDS011;54931;52.098;21.006;2023-06-22T01:05:49;51.30;;;33.30;;
68126;SDS011;54931;52.098;21.006;2023-06-22T01:11:22;48.10;;;32.40;;
68126;SDS011;54931;52.098;21.006;2023-06-22T01:14:06;55.40;;;34.80;;
68126;SDS011;54931;52.098;21.006;2023-06-22T01:16:41;49.00;;;34.00;;
68126;SDS011;54931;52.098;21.006;2023-06-22T01:19:43;51.80;;;34.30;;
68126;SDS011;54931;52.098;21.006;2023-06-22T01:22:17;52.90;;;35.10;;
68126;SDS011;54931;52.098;21.006;2023-06-22T01:25:07;54.70;;;36.60;;
68126;SDS011;54931;52.098;21.006;2023-06-22T01:27:48;48.70;;;34.10;;
68126;SDS011;54931;52.098;21.006;2023-06-22T01:30:24;46.70;;;33.10;;
68126;SDS011;54931;52.098;21.006;2023-06-22T01:32:54;51.90;;;34.50;;
68126;SDS011;54931;52.098;21.006;2023-06-22T01:35:24;53.70;;;35.80;;
68126;SDS011;54931;52.098;21.006;2023-06-22T01:37:54;52.10;;;33.60;;
68126;SDS011;54931;52.098;21.006;2023-06-22T01:40:24;46.70;;;32.60;;
68126;SDS011;54931;52.098;21.006;2023-06-22T01:42:53;49.60;;;32.30;;
68126;SDS011;54931;52.098;21.006;2023-06-22T01:45:21;47.30;;;32.80;;
68126;SDS011;54931;52.098;21.006;2023-06-22T01:47:50;47.30;;;32.90;;
68126;SDS011;54931;52.098;21.006;2023-06-22T01:50:18;48.00;;;31.60;;
68126;SDS011;54931;52.098;21.006;2023-06-22T01:52:46;47.40;;;32.80;;
68126;SDS011;54931;52.098;21.006;2023-06-22T01:55:14;50.40;;;34.10;;
68126;SDS011;54931;52.098;21.006;2023-06-22T01:57:42;52.60;;;34.10;;
68126;SDS011;54931;52.098;21.006;2023-06-22T02:00:20;49.90;;;34.10;;
68126;SDS011;54931;52.098;21.006;2023-06-22T02:03:05;50.30;;;33.70;;
68126;SDS011;54931;52.098;21.006;2023-06-22T02:08:20;45.90;;;30.80;;
68126;SDS011;54931;52.098;21.006;2023-06-22T02:10:54;48.90;;;32.20;;
68126;SDS011;54931;52.098;21.006;2023-06-22T02:13:25;53.70;;;33.50;;
68126;SDS011;54931;52.098;21.006;2023-06-22T02:15:54;50.00;;;32.40;;
68126;SDS011;54931;52.098;21.006;2023-06-22T02:18:22;55.30;;;35.70;;
68126;SDS011;54931;52.098;21.006;2023-06-22T02:20:50;58.10;;;37.30;;
68126;SDS011;54931;52.098;21.006;2023-06-22T02:23:18;58.80;;;38.00;;
68126;SDS011;54931;52.098;21.006;2023-06-22T02:25:45;55.70;;;36.70;;
68126;SDS011;54931;52.098;21.006;2023-06-22T02:28:13;55.70;;;37.30;;
68126;SDS011;54931;52.098;21.006;2023-06-22T02:30:41;60.20;;;38.70;;
68126;SDS011;54931;52.098;21.006;2023-06-22T02:33:09;56.70;;;37.90;;
68126;SDS011;54931;52.098;21.006;2023-06-22T02:35:37;60.40;;;39.20;;
68126;SDS011;54931;52.098;21.006;2023-06-22T02:38:05;54.70;;;36.40;;
68126;SDS011;54931;52.098;21.006;2023-06-22T02:40:32;62.90;;;39.20;;
68126;SDS011;54931;52.098;21.006;2023-06-22T02:43:00;61.30;;;39.40;;
68126;SDS011;54931;52.098;21.006;2023-06-22T02:45:30;66.40;;;42.10;;
68126;SDS011;54931;52.098;21.006;2023-06-22T02:47:58;75.20;;;44.90;;
68126;SDS011;54931;52.098;21.006;2023-06-22T02:50:25;77.10;;;44.60;;
68126;SDS011;54931;52.098;21.006;2023-06-22T02:52:54;83.10;;;48.40;;
68126;SDS011;54931;52.098;21.006;2023-06-22T02:55:22;83.30;;;48.80;;
68126;SDS011;54931;52.098;21.006;2023-06-22T02:57:50;90.10;;;50.10;;
68126;SDS011;54931;52.098;21.006;2023-06-22T03:00:20;84.30;;;47.90;;
68126;SDS011;54931;52.098;21.006;2023-06-22T03:02:49;83.70;;;48.70;;
68126;SDS011;54931;52.098;21.006;2023-06-22T03:05:17;81.80;;;48.00;;
68126;SDS011;54931;52.098;21.006;2023-06-22T03:07:45;89.80;;;49.70;;
68126;SDS011;54931;52.098;21.006;2023-06-22T03:10:14;78.10;;;47.70;;
68126;SDS011;54931;52.098;21.006;2023-06-22T03:12:43;80.10;;;46.50;;
68126;SDS011;54931;52.098;21.006;2023-06-22T03:15:12;84.60;;;49.10;;
68126;SDS011;54931;52.098;21.006;2023-06-22T03:17:40;81.30;;;47.20;;
68126;SDS011;54931;52.098;21.006;2023-06-22T03:20:09;90.50;;;50.70;;
68126;SDS011;54931;52.098;21.006;2023-06-22T03:22:40;87.30;;;48.20;;
68126;SDS011;54931;52.098;21.006;2023-06-22T03:25:09;91.30;;;51.20;;
68126;SDS011;54931;52.098;21.006;2023-06-22T03:27:41;94.50;;;51.30;;
68126;SDS011;54931;52.098;21.006;2023-06-22T03:30:10;91.70;;;48.70;;
68126;SDS011;54931;52.098;21.006;2023-06-22T03:32:39;88.30;;;48.70;;
68126;SDS011;54931;52.098;21.006;2023-06-22T03:35:07;85.70;;;47.60;;
68126;SDS011;54931;52.098;21.006;2023-06-22T03:37:36;91.10;;;49.70;;
68126;SDS011;54931;52.098;21.006;2023-06-22T03:40:05;85.40;;;47.50;;
68126;SDS011;54931;52.098;21.006;2023-06-22T03:42:35;93.90;;;49.00;;
68126;SDS011;54931;52.098;21.006;2023-06-22T03:45:04;89.40;;;48.30;;
68126;SDS011;54931;52.098;21.006;2023-06-22T03:47:33;91.80;;;48.50;;
68126;SDS011;54931;52.098;21.006;2023-06-22T03:50:02;92.30;;;48.60;;
68126;SDS011;54931;52.098;21.006;2023-06-22T03:52:32;89.00;;;48.10;;
68126;SDS011;54931;52.098;21.006;2023-06-22T03:55:00;89.50;;;46.80;;
68126;SDS011;54931;52.098;21.006;2023-06-22T03:57:28;87.50;;;46.10;;
68126;SDS011;54931;52.098;21.006;2023-06-22T03:59:57;87.70;;;45.80;;
68126;SDS011;54931;52.098;21.006;2023-06-22T04:02:25;87.70;;;44.50;;
68126;SDS011;54931;52.098;21.006;2023-06-22T04:04:53;83.90;;;45.90;;
68126;SDS011;54931;52.098;21.006;2023-06-22T04:07:21;79.70;;;45.00;;
68126;SDS011;54931;52.098;21.006;2023-06-22T04:09:48;77.40;;;44.50;;
68126;SDS011;54931;52.098;21.006;2023-06-22T04:12:16;81.10;;;44.10;;
68126;SDS011;54931;52.098;21.006;2023-06-22T04:14:44;76.90;;;42.50;;
68126;SDS011;54931;52.098;21.006;2023-06-22T04:17:12;79.20;;;43.00;;
68126;SDS011;54931;52.098;21.006;2023-06-22T04:19:41;69.10;;;42.30;;
68126;SDS011;54931;52.098;21.006;2023-06-22T04:22:09;68.30;;;41.00;;
68126;SDS011;54931;52.098;21.006;2023-06-22T04:24:37;69.50;;;41.30;;
68126;SDS011;54931;52.098;21.006;2023-06-22T04:27:05;70.10;;;40.90;;
68126;SDS011;54931;52.098;21.006;2023-06-22T04:29:33;69.90;;;41.00;;
68126;SDS011;54931;52.098;21.006;2023-06-22T04:32:02;67.90;;;39.90;;
68126;SDS011;54931;52.098;21.006;2023-06-22T04:34:32;62.00;;;39.60;;
68126;SDS011;54931;52.098;21.006;2023-06-22T04:36:59;60.40;;;39.10;;
68126;SDS011;54931;52.098;21.006;2023-06-22T04:39:27;63.40;;;38.70;;
68126;SDS011;54931;52.098;21.006;2023-06-22T04:41:55;63.10;;;38.80;;
68126;SDS011;54931;52.098;21.006;2023-06-22T04:44:27;60.70;;;38.20;;
68126;SDS011;54931;52.098;21.006;2023-06-22T04:46:59;60.50;;;37.40;;
68126;SDS011;54931;52.098;21.006;2023-06-22T04:49:31;57.90;;;35.10;;
68126;SDS011;54931;52.098;21.006;2023-06-22T04:52:05;60.20;;;37.20;;
68126;SDS011;54931;52.098;21.006;2023-06-22T04:54:37;59.30;;;35.90;;
68126;SDS011;54931;52.098;21.006;2023-06-22T04:57:07;58.40;;;36.10;;
68126;SDS011;54931;52.098;21.006;2023-06-22T04:59:38;55.80;;;34.90;;
68126;SDS011;54931;52.098;21.006;2023-06-22T05:02:09;55.00;;;35.00;;
68126;SDS011;54931;52.098;21.006;2023-06-22T05:04:38;52.80;;;35.30;;
68126;SDS011;54931;52.098;21.006;2023-06-22T05:07:08;58.60;;;34.90;;
68126;SDS011;54931;52.098;21.006;2023-06-22T05:09:37;56.50;;;36.00;;
68126;SDS011;54931;52.098;21.006;2023-06-22T05:12:05;51.10;;;34.20;;
68126;SDS011;54931;52.098;21.006;2023-06-22T05:14:35;51.70;;;35.00;;
68126;SDS011;54931;52.098;21.006;2023-06-22T05:17:03;48.30;;;31.90;;
68126;SDS011;54931;52.098;21.006;2023-06-22T05:19:31;54.70;;;33.90;;
68126;SDS011;54931;52.098;21.006;2023-06-22T05:22:00;55.00;;;34.20;;
68126;SDS011;54931;52.098;21.006;2023-06-22T05:24:28;50.20;;;34.10;;
68126;SDS011;54931;52.098;21.006;2023-06-22T05:26:55;50.50;;;33.30;;
68126;SDS011;54931;52.098;21.006;2023-06-22T05:29:23;46.70;;;31.90;;
68126;SDS011;54931;52.098;21.006;2023-06-22T05:31:51;51.80;;;33.00;;
68126;SDS011;54931;52.098;21.006;2023-06-22T05:34:19;46.10;;;31.00;;
68126;SDS011;54931;52.098;21.006;2023-06-22T05:36:47;46.30;;;30.50;;
68126;SDS011;54931;52.098;21.006;2023-06-22T05:39:15;50.50;;;31.90;;
68126;SDS011;54931;52.098;21.006;2023-06-22T05:41:45;48.10;;;31.60;;
68126;SDS011;54931;52.098;21.006;2023-06-22T05:44:13;42.60;;;30.00;;
68126;SDS011;54931;52.098;21.006;2023-06-22T05:46:42;48.80;;;31.50;;
68126;SDS011;54931;52.098;21.006;2023-06-22T05:49:12;45.00;;;29.70;;
68126;SDS011;54931;52.098;21.006;2023-06-22T05:51:42;45.50;;;30.90;;
68126;SDS011;54931;52.098;21.006;2023-06-22T05:54:10;45.00;;;30.70;;
68126;SDS011;54931;52.098;21.006;2023-06-22T05:56:40;44.00;;;29.40;;
68126;SDS011;54931;52.098;21.006;2023-06-22T05:59:09;44.40;;;29.20;;
68126;SDS011;54931;52.098;21.006;2023-06-22T06:01:36;45.10;;;29.30;;
68126;SDS011;54931;52.098;21.006;2023-06-22T06:04:04;40.80;;;28.10;;
68126;SDS011;54931;52.098;21.006;2023-06-22T06:06:32;39.90;;;28.00;;
68126;SDS011;54931;52.098;21.006;2023-06-22T06:09:04;39.40;;;27.50;;
68126;SDS011;54931;52.098;21.006;2023-06-22T06:11:33;42.90;;;28.50;;
68126;SDS011;54931;52.098;21.006;2023-06-22T06:14:00;39.80;;;26.90;;
68126;SDS011;54931;52.098;21.006;2023-06-22T06:16:28;41.10;;;27.30;;
68126;SDS011;54931;52.098;21.006;2023-06-22T06:18:56;39.10;;;26.20;;
68126;SDS011;54931;52.098;21.006;2023-06-22T06:21:27;37.60;;;26.50;;
68126;SDS011;54931;52.098;21.006;2023-06-22T06:23:55;38.80;;;25.90;;
68126;SDS011;54931;52.098;21.006;2023-06-22T06:26:23;41.70;;;27.20;;
68126;SDS011;54931;52.098;21.006;2023-06-22T06:28:57;40.10;;;27.60;;
68126;SDS011;54931;52.098;21.006;2023-06-22T06:31:25;38.00;;;26.70;;
68126;SDS011;54931;52.098;21.006;2023-06-22T06:33:56;38.80;;;27.00;;
68126;SDS011;54931;52.098;21.006;2023-06-22T06:36:24;37.60;;;25.30;;
68126;SDS011;54931;52.098;21.006;2023-06-22T06:38:52;38.30;;;25.40;;
68126;SDS011;54931;52.098;21.006;2023-06-22T06:41:21;34.50;;;24.30;;
68126;SDS011;54931;52.098;21.006;2023-06-22T06:43:48;34.40;;;23.90;;
68126;SDS011;54931;52.098;21.006;2023-06-22T06:46:16;33.40;;;23.40;;
68126;SDS011;54931;52.098;21.006;2023-06-22T06:48:46;34.80;;;24.00;;
68126;SDS011;54931;52.098;21.006;2023-06-22T06:51:14;32.70;;;23.10;;
68126;SDS011;54931;52.098;21.006;2023-06-22T06:53:42;33.10;;;22.70;;
68126;SDS011;54931;52.098;21.006;2023-06-22T06:56:10;31.90;;;22.60;;
68126;SDS011;54931;52.098;21.006;2023-06-22T06:58:40;29.00;;;21.90;;
68126;SDS011;54931;52.098;21.006;2023-06-22T07:01:12;29.40;;;20.70;;
68126;SDS011;54931;52.098;21.006;2023-06-22T07:03:41;32.90;;;21.30;;
68126;SDS011;54931;52.098;21.006;2023-06-22T07:06:09;28.90;;;21.30;;
68126;SDS011;54931;52.098;21.006;2023-06-22T07:08:37;28.50;;;20.10;;
68126;SDS011;54931;52.098;21.006;2023-06-22T07:11:07;30.10;;;19.60;;
68126;SDS011;54931;52.098;21.006;2023-06-22T07:13:34;25.70;;;18.10;;
68126;SDS011;54931;52.098;21.006;2023-06-22T07:16:02;26.70;;;19.30;;
68126;SDS011;54931;52.098;21.006;2023-06-22T07:18:30;26.30;;;18.20;;
68126;SDS011;54931;52.098;21.006;2023-06-22T07:20:58;22.30;;;16.90;;
68126;SDS011;54931;52.098;21.006;2023-06-22T07:23:26;25.30;;;18.20;;
68126;SDS011;54931;52.098;21.006;2023-06-22T07:25:54;23.00;;;17.20;;
68126;SDS011;54931;52.098;21.006;2023-06-22T07:28:21;23.70;;;16.70;;
68126;SDS011;54931;52.098;21.006;2023-06-22T07:30:49;26.90;;;18.00;;
68126;SDS011;54931;52.098;21.006;2023-06-22T07:33:18;21.00;;;16.20;;
68126;SDS011;54931;52.098;21.006;2023-06-22T07:35:46;22.70;;;15.70;;
68126;SDS011;54931;52.098;21.006;2023-06-22T07:38:16;18.90;;;15.30;;
68126;SDS011;54931;52.098;21.006;2023-06-22T07:40:43;23.30;;;15.10;;
68126;SDS011;54931;52.098;21.006;2023-06-22T07:43:11;19.00;;;14.40;;
68126;SDS011;54931;52.098;21.006;2023-06-22T07:45:39;16.20;;;12.50;;
68126;SDS011;54931;52.098;21.006;2023-06-22T07:48:08;16.50;;;12.10;;
68126;SDS011;54931;52.098;21.006;2023-06-22T07:50:35;18.30;;;13.80;;
68126;SDS011;54931;52.098;21.006;2023-06-22T07:53:03;19.10;;;12.90;;
68126;SDS011;54931;52.098;21.006;2023-06-22T07:55:32;14.80;;;13.00;;
68126;SDS011;54931;52.098;21.006;2023-06-22T07:57:59;13.30;;;10.90;;
68126;SDS011;54931;52.098;21.006;2023-06-22T08:00:27;14.00;;;10.70;;
68126;SDS011;54931;52.098;21.006;2023-06-22T08:02:55;17.40;;;10.60;;
68126;SDS011;54931;52.098;21.006;2023-06-22T08:05:23;13.20;;;9.80;;
68126;SDS011;54931;52.098;21.006;2023-06-22T08:07:51;12.10;;;9.90;;
68126;SDS011;54931;52.098;21.006;2023-06-22T08:10:21;13.80;;;9.90;;
68126;SDS011;54931;52.098;21.006;2023-06-22T08:12:49;11.70;;;9.50;;
68126;SDS011;54931;52.098;21.006;2023-06-22T08:15:17;12.40;;;9.10;;
68126;SDS011;54931;52.098;21.006;2023-06-22T08:17:45;9.60;;;8.30;;
68126;SDS011;54931;52.098;21.006;2023-06-22T08:20:13;13.80;;;7.40;;
68126;SDS011;54931;52.098;21.006;2023-06-22T08:22:41;10.90;;;7.60;;
68126;SDS011;54931;52.098;21.006;2023-06-22T08:25:11;9.80;;;7.70;;
68126;SDS011;54931;52.098;21.006;2023-06-22T08:27:40;11.90;;;7.80;;
68126;SDS011;54931;52.098;21.006;2023-06-22T08:30:12;10.70;;;8.00;;
68126;SDS011;54931;52.098;21.006;2023-06-22T08:32:40;9.30;;;7.50;;
68126;SDS011;54931;52.098;21.006;2023-06-22T08:35:08;11.60;;;7.40;;
68126;SDS011;54931;52.098;21.006;2023-06-22T08:37:37;10.50;;;6.50;;
68126;SDS011;54931;52.098;21.006;2023-06-22T08:40:09;6.80;;;5.90;;
68126;SDS011;54931;52.098;21.006;2023-06-22T08:42:37;10.30;;;6.10;;
68126;SDS011;54931;52.098;21.006;2023-06-22T08:45:08;7.30;;;6.20;;
68126;SDS011;54931;52.098;21.006;2023-06-22T08:47:38;9.90;;;6.30;;
68126;SDS011;54931;52.098;21.006;2023-06-22T08:50:11;7.10;;;5.80;;
68126;SDS011;54931;52.098;21.006;2023-06-22T08:52:40;7.90;;;5.50;;
68126;SDS011;54931;52.098;21.006;2023-06-22T08:55:09;7.50;;;5.10;;
68126;SDS011;54931;52.098;21.006;2023-06-22T08:57:38;7.40;;;4.80;;
68126;SDS011;54931;52.098;21.006;2023-06-22T09:00:08;10.10;;;5.30;;
68126;SDS011;54931;52.098;21.006;2023-06-22T09:02:45;7.40;;;5.30;;
68126;SDS011;54931;52.098;21.006;2023-06-22T09:05:15;8.90;;;5.50;;
68126;SDS011;54931;52.098;21.006;2023-06-22T09:07:43;8.30;;;5.50;;
68126;SDS011;54931;52.098;21.006;2023-06-22T09:10:11;5.30;;;4.20;;
68126;SDS011;54931;52.098;21.006;2023-06-22T09:12:39;5.40;;;4.20;;
68126;SDS011;54931;52.098;21.006;2023-06-22T09:15:08;5.90;;;4.30;;
68126;SDS011;54931;52.098;21.006;2023-06-22T09:17:36;8.50;;;4.10;;
68126;SDS011;54931;52.098;21.006;2023-06-22T09:20:06;6.30;;;3.90;;
68126;SDS011;54931;52.098;21.006;2023-06-22T09:22:36;7.80;;;4.40;;
68126;SDS011;54931;52.098;21.006;2023-06-22T09:25:05;6.70;;;4.00;;
68126;SDS011;54931;52.098;21.006;2023-06-22T09:27:33;5.20;;;3.70;;
68126;SDS011;54931;52.098;21.006;2023-06-22T09:30:01;5.20;;;4.00;;
68126;SDS011;54931;52.098;21.006;2023-06-22T09:32:30;6.60;;;3.80;;
68126;SDS011;54931;52.098;21.006;2023-06-22T09:34:58;4.20;;;3.30;;
68126;SDS011;54931;52.098;21.006;2023-06-22T09:37:26;5.30;;;3.80;;
68126;SDS011;54931;52.098;21.006;2023-06-22T09:39:53;5.10;;;3.70;;
68126;SDS011;54931;52.098;21.006;2023-06-22T09:42:21;6.60;;;4.10;;
68126;SDS011;54931;52.098;21.006;2023-06-22T09:44:49;4.50;;;3.70;;
68126;SDS011;54931;52.098;21.006;2023-06-22T09:47:16;9.60;;;3.40;;
68126;SDS011;54931;52.098;21.006;2023-06-22T09:49:44;5.40;;;3.00;;
68126;SDS011;54931;52.098;21.006;2023-06-22T09:52:13;4.00;;;3.30;;
68126;SDS011;54931;52.098;21.006;2023-06-22T09:54:40;4.60;;;3.50;;
68126;SDS011;54931;52.098;21.006;2023-06-22T09:57:08;4.70;;;3.40;;
68126;SDS011;54931;52.098;21.006;2023-06-22T09:59:36;4.50;;;3.50;;
68126;SDS011;54931;52.098;21.006;2023-06-22T10:02:05;5.60;;;3.10;;
68126;SDS011;54931;52.098;21.006;2023-06-22T10:04:35;6.70;;;4.00;;
68126;SDS011;54931;52.098;21.006;2023-06-22T10:07:03;6.50;;;3.80;;
68126;SDS011;54931;52.098;21.006;2023-06-22T10:09:31;6.20;;;3.20;;
68126;SDS011;54931;52.098;21.006;2023-06-22T10:11:58;8.50;;;3.50;;
68126;SDS011;54931;52.098;21.006;2023-06-22T10:14:26;5.60;;;3.60;;
68126;SDS011;54931;52.098;21.006;2023-06-22T10:16:56;4.40;;;3.10;;
68126;SDS011;54931;52.098;21.006;2023-06-22T10:19:24;5.20;;;3.70;;
68126;SDS011;54931;52.098;21.006;2023-06-22T10:21:51;5.90;;;4.10;;
68126;SDS011;54931;52.098;21.006;2023-06-22T10:24:19;4.80;;;3.60;;
68126;SDS011;54931;52.098;21.006;2023-06-22T10:26:46;5.50;;;4.10;;
68126;SDS011;54931;52.098;21.006;2023-06-22T10:29:14;5.60;;;4.10;;
68126;SDS011;54931;52.098;21.006;2023-06-22T10:31:41;8.90;;;3.90;;
68126;SDS011;54931;52.098;21.006;2023-06-22T10:34:09;5.60;;;3.80;;
68126;SDS011;54931;52.098;21.006;2023-06-22T10:36:36;6.80;;;3.60;;
68126;SDS011;54931;52.098;21.006;2023-06-22T10:39:04;7.00;;;4.00;;
68126;SDS011;54931;52.098;21.006;2023-06-22T10:41:33;4.90;;;4.20;;
68126;SDS011;54931;52.098;21.006;2023-06-22T10:44:00;8.70;;;4.40;;
68126;SDS011;54931;52.098;21.006;2023-06-22T10:46:28;5.20;;;4.00;;
68126;SDS011;54931;52.098;21.006;2023-06-22T10:48:55;8.90;;;4.40;;
68126;SDS011;54931;52.098;21.006;2023-06-22T10:51:25;5.60;;;4.10;;
68126;SDS011;54931;52.098;21.006;2023-06-22T10:53:55;6.60;;;4.60;;
68126;SDS011;54931;52.098;21.006;2023-06-22T10:56:22;5.60;;;4.30;;
68126;SDS011;54931;52.098;21.006;2023-06-22T10:58:50;7.00;;;4.70;;
68126;SDS011;54931;52.098;21.006;2023-06-22T11:01:18;5.70;;;4.50;;
68126;SDS011;54931;52.098;21.006;2023-06-22T11:03:47;6.10;;;4.40;;
68126;SDS011;54931;52.098;21.006;2023-06-22T11:06:14;8.50;;;5.00;;
68126;SDS011;54931;52.098;21.006;2023-06-22T11:08:44;5.70;;;4.30;;
68126;SDS011;54931;52.098;21.006;2023-06-22T11:11:12;6.80;;;4.70;;
68126;SDS011;54931;52.098;21.006;2023-06-22T11:13:39;8.00;;;5.00;;
68126;SDS011;54931;52.098;21.006;2023-06-22T11:16:07;6.80;;;4.60;;
68126;SDS011;54931;52.098;21.006;2023-06-22T11:18:34;6.70;;;4.30;;
68126;SDS011;54931;52.098;21.006;2023-06-22T11:21:02;6.70;;;5.10;;
68126;SDS011;54931;52.098;21.006;2023-06-22T11:23:30;8.20;;;4.50;;
68126;SDS011;54931;52.098;21.006;2023-06-22T11:25:58;6.10;;;4.70;;
68126;SDS011;54931;52.098;21.006;2023-06-22T11:28:26;7.20;;;4.80;;
68126;SDS011;54931;52.098;21.006;2023-06-22T11:30:54;8.20;;;4.60;;
68126;SDS011;54931;52.098;21.006;2023-06-22T11:33:22;8.70;;;5.10;;
68126;SDS011;54931;52.098;21.006;2023-06-22T11:35:50;7.00;;;5.20;;
68126;SDS011;54931;52.098;21.006;2023-06-22T11:38:17;9.30;;;5.00;;
68126;SDS011;54931;52.098;21.006;2023-06-22T11:40:45;6.00;;;4.70;;
68126;SDS011;54931;52.098;21.006;2023-06-22T11:43:12;9.00;;;4.80;;
68126;SDS011;54931;52.098;21.006;2023-06-22T11:45:42;8.00;;;4.80;;
68126;SDS011;54931;52.098;21.006;2023-06-22T11:48:09;7.80;;;5.30;;
68126;SDS011;54931;52.098;21.006;2023-06-22T11:50:37;7.70;;;4.80;;
68126;SDS011;54931;52.098;21.006;2023-06-22T11:53:05;9.10;;;5.20;;
68126;SDS011;54931;52.098;21.006;2023-06-22T11:55:32;8.50;;;5.10;;
68126;SDS011;54931;52.098;21.006;2023-06-22T11:58:00;9.00;;;5.20;;
68126;SDS011;54931;52.098;21.006;2023-06-22T12:00:30;8.10;;;5.60;;
68126;SDS011;54931;52.098;21.006;2023-06-22T12:02:58;8.00;;;5.00;;
68126;SDS011;54931;52.098;21.006;2023-06-22T12:05:25;6.30;;;5.40;;
68126;SDS011;54931;52.098;21.006;2023-06-22T12:07:54;7.60;;;5.50;;
68126;SDS011;54931;52.098;21.006;2023-06-22T12:10:22;10.40;;;5.20;;
68126;SDS011;54931;52.098;21.006;2023-06-22T12:12:50;8.30;;;4.90;;
68126;SDS011;54931;52.098;21.006;2023-06-22T12:15:18;7.50;;;5.00;;
68126;SDS011;54931;52.098;21.006;2023-06-22T12:17:46;7.60;;;4.90;;
68126;SDS011;54931;52.098;21.006;2023-06-22T12:20:15;7.80;;;5.10;;
68126;SDS011;54931;52.098;21.006;2023-06-22T12:22:43;6.50;;;4.70;;
68126;SDS011;54931;52.098;21.006;2023-06-22T12:25:11;6.20;;;4.90;;
68126;SDS011;54931;52.098;21.006;2023-06-22T12:27:39;6.70;;;5.40;;
68126;SDS011;54931;52.098;21.006;2023-06-22T12:30:08;8.90;;;5.60;;
68126;SDS011;54931;52.098;21.006;2023-06-22T12:32:36;7.80;;;4.80;;
68126;SDS011;54931;52.098;21.006;2023-06-22T12:35:04;7.30;;;4.90;;
68126;SDS011;54931;52.098;21.006;2023-06-22T12:37:32;8.10;;;4.70;;
68126;SDS011;54931;52.098;21.006;2023-06-22T12:39:59;8.60;;;4.80;;
68126;SDS011;54931;52.098;21.006;2023-06-22T12:42:27;6.20;;;4.70;;
68126;SDS011;54931;52.098;21.006;2023-06-22T12:44:55;6.30;;;4.70;;
68126;SDS011;54931;52.098;21.006;2023-06-22T12:47:22;6.80;;;5.20;;
68126;SDS011;54931;52.098;21.006;2023-06-22T12:49:50;7.10;;;4.80;;
68126;SDS011;54931;52.098;21.006;2023-06-22T12:52:17;9.70;;;4.70;;
68126;SDS011;54931;52.098;21.006;2023-06-22T12:54:45;6.30;;;4.70;;
68126;SDS011;54931;52.098;21.006;2023-06-22T12:57:12;9.20;;;5.10;;
68126;SDS011;54931;52.098;21.006;2023-06-22T12:59:40;7.90;;;5.10;;
68126;SDS011;54931;52.098;21.006;2023-06-22T13:02:07;7.40;;;5.10;;
68126;SDS011;54931;52.098;21.006;2023-06-22T13:04:35;8.60;;;5.50;;
68126;SDS011;54931;52.098;21.006;2023-06-22T13:07:03;6.50;;;5.00;;
68126;SDS011;54931;52.098;21.006;2023-06-22T13:09:32;7.20;;;4.70;;
68126;SDS011;54931;52.098;21.006;2023-06-22T13:11:59;8.30;;;5.10;;
68126;SDS011;54931;52.098;21.006;2023-06-22T13:14:27;7.40;;;4.60;;
68126;SDS011;54931;52.098;21.006;2023-06-22T13:16:55;7.30;;;4.50;;
68126;SDS011;54931;52.098;21.006;2023-06-22T13:19:22;5.70;;;4.60;;
68126;SDS011;54931;52.098;21.006;2023-06-22T13:21:50;6.40;;;4.40;;
68126;SDS011;54931;52.098;21.006;2023-06-22T13:24:17;5.50;;;4.50;;
68126;SDS011;54931;52.098;21.006;2023-06-22T13:26:45;6.20;;;4.30;;
68126;SDS011;54931;52.098;21.006;2023-06-22T13:29:12;7.80;;;4.60;;
68126;SDS011;54931;52.098;21.006;2023-06-22T13:31:40;7.60;;;4.50;;
68126;SDS011;54931;52.098;21.006;2023-06-22T13:34:07;5.50;;;4.20;;
68126;SDS011;54931;52.098;21.006;2023-06-22T13:36:35;8.50;;;4.50;;
68126;SDS011;54931;52.098;21.006;2023-06-22T13:39:03;6.70;;;4.40;;
68126;SDS011;54931;52.098;21.006;2023-06-22T13:41:31;8.80;;;4.50;;
68126;SDS011;54931;52.098;21.006;2023-06-22T13:43:59;8.10;;;4.60;;
68126;SDS011;54931;52.098;21.006;2023-06-22T13:46:28;7.50;;;4.40;;
68126;SDS011;54931;52.098;21.006;2023-06-22T13:48:55;7.70;;;4.70;;
68126;SDS011;54931;52.098;21.006;2023-06-22T13:51:23;6.30;;;4.50;;
68126;SDS011;54931;52.098;21.006;2023-06-22T13:53:51;6.40;;;4.40;;
68126;SDS011;54931;52.098;21.006;2023-06-22T13:56:18;5.40;;;4.30;;
68126;SDS011;54931;52.098;21.006;2023-06-22T13:58:46;6.90;;;4.20;;
68126;SDS011;54931;52.098;21.006;2023-06-22T14:01:13;5.20;;;3.80;;
68126;SDS011;54931;52.098;21.006;2023-06-22T14:03:41;5.90;;;4.20;;
68126;SDS011;54931;52.098;21.006;2023-06-22T14:06:08;6.70;;;4.00;;
68126;SDS011;54931;52.098;21.006;2023-06-22T14:08:37;6.40;;;3.90;;
68126;SDS011;54931;52.098;21.006;2023-06-22T14:11:05;6.40;;;3.90;;
68126;SDS011;54931;52.098;21.006;2023-06-22T14:13:32;5.20;;;3.90;;
68126;SDS011;54931;52.098;21.006;2023-06-22T14:16:00;6.30;;;4.10;;
68126;SDS011;54931;52.098;21.006;2023-06-22T14:18:27;5.50;;;4.10;;
68126;SDS011;54931;52.098;21.006;2023-06-22T14:20:55;4.90;;;4.10;;
68126;SDS011;54931;52.098;21.006;2023-06-22T14:23:23;5.20;;;4.10;;
68126;SDS011;54931;52.098;21.006;2023-06-22T14:25:51;4.70;;;4.00;;
68126;SDS011;54931;52.098;21.006;2023-06-22T14:28:19;7.10;;;3.90;;
68126;SDS011;54931;52.098;21.006;2023-06-22T14:30:46;6.70;;;4.00;;
68126;SDS011;54931;52.098;21.006;2023-06-22T14:33:14;7.00;;;4.40;;
68126;SDS011;54931;52.098;21.006;2023-06-22T14:35:42;6.70;;;4.40;;